Time;durP1;ratioP1;P1;durP2;ratioP2;P2;SDS_P1;SDS_P2;PMS_P1;PMS_P2;Temp;Humidity;BMP_temperature;BMP_pressure;BME280_temperature;BME280_humidity;BME280_pressure;Samples;Min_cycle;Max_cycle;Signal;HPM_P1;HPM_P2
2023/07/20 00:01:22;;;;;;;;;2.67;2.67;;;;;27.89;38.50;101588.38;5097064;27;46911;-78
2023/07/20 00:03:54;;;;;;;;;2.00;2.00;;;;;27.91;38.36;101585.50;5097116;27;45389;-78
2023/07/20 00:06:20;;;;;;;;;2.00;2.00;;;;;27.81;38.35;101576.00;5097146;27;45405;-78
2023/07/20 00:08:45;;;;;;;;;2.00;2.00;;;;;27.79;38.42;101567.31;5096892;27;45461;-78
2023/07/20 00:11:13;;;;;;;;;3.00;1.00;;;;;27.76;38.35;101565.06;5096516;27;45481;-78
2023/07/20 00:13:38;;;;;;;;;2.00;2.00;;;;;27.83;37.87;101573.13;5096911;27;45304;-78
2023/07/20 00:16:04;;;;;;;;;2.00;2.00;;;;;27.95;37.86;101587.53;5096898;27;45524;-78
2023/07/20 00:18:29;;;;;;;;;3.00;3.00;;;;;27.80;37.83;101561.00;5096922;27;45503;-78
2023/07/20 00:20:54;;;;;;;;;2.00;2.00;;;;;27.92;37.95;101585.28;5097109;27;45393;-77
2023/07/20 00:23:22;;;;;;;;;4.67;1.00;;;;;27.81;37.76;101568.00;5113269;27;45373;-78
2023/07/20 00:25:48;;;;;;;;;2.33;2.33;;;;;27.90;37.95;101581.16;5097435;27;45267;-77
2023/07/20 00:28:13;;;;;;;;;2.67;1.33;;;;;27.91;37.70;101574.78;5095538;27;45496;-78
2023/07/20 00:30:40;;;;;;;;;3.00;1.33;;;;;27.80;38.12;101550.28;5096428;27;45241;-78
2023/07/20 00:33:10;;;;;;;;;3.00;1.00;;;;;27.81;37.88;101556.47;5096641;27;45275;-78
2023/07/20 00:35:35;;;;;;;;;0.67;0.67;;;;;27.85;38.12;101571.06;5096737;27;45427;-79
2023/07/20 00:38:01;;;;;;;;;2.00;2.00;;;;;27.87;38.45;101558.31;5096578;27;45354;-78
2023/07/20 00:40:27;;;;;;;;;2.00;2.00;;;;;27.60;38.10;101510.97;5096182;27;46065;-78
2023/07/20 00:42:52;;;;;;;;;3.33;2.00;;;;;28.00;37.98;101575.44;5096539;27;45403;-78
2023/07/20 00:45:17;;;;;;;;;3.00;1.67;;;;;27.88;37.99;101553.78;5096760;27;45347;-79
2023/07/20 00:47:43;;;;;;;;;2.67;1.67;;;;;27.69;38.14;101532.97;5095183;27;45445;-78
2023/07/20 00:50:10;;;;;;;;;2.00;2.00;;;;;28.00;37.65;101568.22;5096157;27;46620;-77
2023/07/20 00:52:39;;;;;;;;;2.00;2.00;;;;;28.01;37.59;101571.72;5096468;27;45310;-78
2023/07/20 00:55:05;;;;;;;;;2.00;1.00;;;;;28.00;37.81;101572.75;5096060;27;45369;-77
2023/07/20 00:57:30;;;;;;;;;1.33;1.33;;;;;28.01;38.28;101569.03;5096249;27;45499;-78
2023/07/20 00:59:56;;;;;;;;;0.00;0.00;;;;;27.68;37.95;101517.13;5096340;27;46724;-79
2023/07/20 01:02:21;;;;;;;;;2.00;2.00;;;;;28.01;38.14;101564.53;5097725;27;45327;-78
2023/07/20 01:04:47;;;;;;;;;1.67;1.67;;;;;28.02;37.95;101570.69;5099561;27;45488;-78
2023/07/20 01:07:24;;;;;;;;;3.00;2.00;;;;;28.01;37.76;101567.19;5100126;27;45235;-78
2023/07/20 01:10:33;;;;;;;;;2.33;1.00;;;;;28.02;37.81;101570.69;5099294;27;45836;-78
2023/07/20 01:13:01;;;;;;;;;1.33;1.33;;;;;27.95;38.25;101554.63;5099755;27;45345;-77
2023/07/20 01:15:27;;;;;;;;;2.33;2.33;;;;;28.00;38.39;101559.38;5099825;27;45219;-78
2023/07/20 01:17:52;;;;;;;;;1.67;1.67;;;;;27.74;37.95;101519.81;5099614;27;45228;-78
2023/07/20 01:20:21;;;;;;;;;3.00;2.00;;;;;28.00;38.10;101562.88;5099696;27;46401;-78
2023/07/20 01:23:27;;;;;;;;;3.00;3.00;;;;;28.01;37.83;101561.00;5100010;27;45525;-77
2023/07/20 01:26:02;;;;;;;;;2.67;1.67;;;;;28.02;37.80;101558.16;5099622;27;45366;-78
2023/07/20 01:28:30;;;;;;;;;3.00;2.00;;;;;28.01;37.67;101556.50;5099583;27;45670;-78
2023/07/20 01:31:19;;;;;;;;;1.00;1.00;;;;;27.96;37.95;101550.94;5099473;27;46245;-77
2023/07/20 01:33:47;;;;;;;;;1.33;0.67;;;;;27.95;37.90;101542.09;5099466;27;45258;-79
2023/07/20 01:36:14;;;;;;;;;3.67;3.00;;;;;27.96;38.35;101538.41;5099548;27;45450;-78
2023/07/20 01:38:41;;;;;;;;;1.00;1.00;;;;;28.03;38.35;101545.59;5099242;27;45440;-78
2023/07/20 01:41:08;;;;;;;;;1.00;1.00;;;;;27.84;38.22;101507.94;5099245;27;46005;-78
2023/07/20 01:43:33;;;;;;;;;2.00;2.00;;;;;27.96;38.33;101524.19;5099221;27;45401;-78
2023/07/20 01:45:59;;;;;;;;;2.00;2.00;;;;;27.94;38.25;101521.72;5098077;27;45486;-78
2023/07/20 01:48:24;;;;;;;;;1.67;1.67;;;;;28.04;38.03;101536.53;5099376;27;45253;-78
2023/07/20 01:50:50;;;;;;;;;1.00;1.00;;;;;27.75;38.09;101491.22;5098898;27;45349;-78
2023/07/20 01:53:15;;;;;;;;;1.00;1.00;;;;;27.64;38.13;101473.94;5098960;27;45437;-78
2023/07/20 01:55:40;;;;;;;;;2.00;2.00;;;;;27.82;37.98;101502.78;5099173;27;45421;-78
2023/07/20 01:58:06;;;;;;;;;1.67;1.33;;;;;27.80;37.76;101496.81;5099330;27;45436;-78
2023/07/20 02:00:32;;;;;;;;;1.67;1.67;;;;;28.01;37.87;101528.94;5099192;27;47372;-78
2023/07/20 02:02:57;;;;;;;;;1.00;1.00;;;;;27.89;37.81;101512.66;5099134;27;45382;-78
2023/07/20 02:05:22;;;;;;;;;2.00;2.00;;;;;27.69;38.44;101482.16;5099097;27;45339;-78
2023/07/20 02:07:48;;;;;;;;;2.00;1.00;;;;;27.88;38.16;101509.16;5098537;27;45331;-77
2023/07/20 02:10:13;;;;;;;;;2.00;2.00;;;;;28.02;38.29;101534.09;5098963;27;46551;-78
2023/07/20 02:12:38;;;;;;;;;1.00;1.00;;;;;27.96;37.90;101518.84;5098922;27;45335;-77
2023/07/20 02:15:04;;;;;;;;;4.67;1.00;;;;;27.87;37.97;101507.50;5099165;27;45417;-78
2023/07/20 02:17:29;;;;;;;;;2.00;1.00;;;;;28.02;38.03;101526.06;5098742;27;45358;-77
2023/07/20 02:19:57;;;;;;;;;3.00;2.00;;;;;28.02;38.24;101530.59;5114770;27;47375;-78
2023/07/20 02:22:23;;;;;;;;;2.00;2.00;;;;;27.97;38.30;101520.50;5098411;27;45217;-78
2023/07/20 02:24:50;;;;;;;;;1.00;1.00;;;;;28.01;38.09;101526.25;5114731;27;45269;-77
2023/07/20 02:27:16;;;;;;;;;2.00;2.00;;;;;27.99;37.86;101518.44;5098613;27;45538;-78
2023/07/20 02:29:42;;;;;;;;;1.00;1.00;;;;;28.02;37.73;101523.38;5098615;27;46408;-78
2023/07/20 02:32:09;;;;;;;;;2.00;2.00;;;;;27.94;37.79;101516.38;5098367;27;45360;-77
2023/07/20 02:34:35;;;;;;;;;3.00;3.00;;;;;27.97;38.05;101523.19;5098624;27;45384;-77
2023/07/20 02:37:01;;;;;;;;;0.33;0.33;;;;;28.03;38.20;101527.69;5096935;27;45611;-78
2023/07/20 02:39:29;;;;;;;;;2.00;2.00;;;;;28.05;37.81;101530.19;5098257;27;45580;-75
2023/07/20 02:41:55;;;;;;;;;1.00;1.00;;;;;27.81;37.92;101493.13;5098509;27;45358;-77
2023/07/20 02:44:20;;;;;;;;;1.33;1.00;;;;;27.66;37.92;101465.72;5098619;27;45315;-77
2023/07/20 02:46:46;;;;;;;;;1.33;1.33;;;;;28.04;38.03;101520.50;5097076;27;45567;-77
2023/07/20 02:49:11;;;;;;;;;1.67;1.67;;;;;27.71;38.18;101466.75;5098432;27;46443;-78
2023/07/20 02:51:36;;;;;;;;;2.00;2.00;;;;;28.01;37.95;101516.38;5097693;27;45416;-76
2023/07/20 02:54:03;;;;;;;;;1.00;1.00;;;;;27.74;37.59;101494.91;5098344;27;45381;-78
2023/07/20 02:56:28;;;;;;;;;2.00;2.00;;;;;28.04;38.40;101518.66;5098456;27;45409;-78
2023/07/20 02:58:54;;;;;;;;;1.00;1.00;;;;;27.99;38.03;101506.91;5098085;27;46484;-77
2023/07/20 03:01:19;;;;;;;;;1.00;1.00;;;;;28.04;38.06;101512.47;5098040;27;45480;-79
2023/07/20 03:03:47;;;;;;;;;2.00;2.00;;;;;27.89;37.80;101491.28;5098366;27;45362;-77
2023/07/20 03:06:16;;;;;;;;;2.00;2.00;;;;;27.65;38.23;101472.94;5097692;27;45287;-78
2023/07/20 03:08:48;;;;;;;;;2.00;1.00;;;;;28.04;38.14;101524.00;5097816;27;47243;-78
2023/07/20 03:11:16;;;;;;;;;1.67;1.67;;;;;28.04;37.85;101512.47;5097967;27;45429;-77
2023/07/20 03:13:42;;;;;;;;;1.67;1.67;;;;;28.04;38.17;101515.97;5114104;27;45417;-78
2023/07/20 03:16:11;;;;;;;;;1.00;1.00;;;;;27.94;37.84;101500.34;5097884;27;45406;-78
2023/07/20 03:18:40;;;;;;;;;2.00;2.00;;;;;28.00;37.76;101511.25;5097492;27;46138;-78
2023/07/20 03:21:06;;;;;;;;;1.00;1.00;;;;;28.04;38.08;101524.00;5097510;27;45291;-78
2023/07/20 03:23:31;;;;;;;;;1.33;1.33;;;;;28.00;37.74;101511.25;5097706;27;45375;-77
2023/07/20 03:25:57;;;;;;;;;1.00;1.00;;;;;28.05;37.62;101522.16;5097155;27;45410;-78
2023/07/20 03:28:22;;;;;;;;;2.00;2.00;;;;;28.04;37.88;101526.69;5097601;27;46194;-78
2023/07/20 03:30:54;;;;;;;;;1.00;1.00;;;;;27.92;38.41;101497.03;5097593;27;45398;-77
2023/07/20 03:33:19;;;;;;;;;2.00;2.00;;;;;28.05;38.19;101506.09;5097968;27;46032;-78
2023/07/20 03:35:45;;;;;;;;;2.67;1.33;;;;;28.04;37.59;101509.81;5097129;27;45392;-79
2023/07/20 03:38:10;;;;;;;;;1.67;1.67;;;;;27.81;38.24;101476.25;5097623;27;45479;-77
2023/07/20 03:40:35;;;;;;;;;1.00;1.00;;;;;27.96;38.16;101500.94;5097681;27;45342;-77
2023/07/20 03:43:01;;;;;;;;;2.00;2.00;;;;;28.05;37.88;101514.13;5096185;27;45326;-77
2023/07/20 03:45:26;;;;;;;;;3.00;1.00;;;;;27.81;38.10;101482.44;5096529;27;45269;-78
2023/07/20 03:47:51;;;;;;;;;2.00;1.00;;;;;28.04;38.07;101513.31;5097226;27;46069;-77
2023/07/20 03:50:17;;;;;;;;;3.33;2.00;;;;;27.61;38.13;101448.44;5096756;27;45430;-78
2023/07/20 03:52:42;;;;;;;;;2.00;2.00;;;;;28.06;38.08;101518.44;5097465;27;45569;-78
2023/07/20 03:55:07;;;;;;;;;2.00;2.00;;;;;27.77;38.21;101467.78;5097216;27;45516;-78
2023/07/20 03:57:33;;;;;;;;;1.00;1.00;;;;;27.88;38.20;101501.16;5097145;27;45429;-78
2023/07/20 03:59:58;;;;;;;;;1.67;1.67;;;;;27.98;38.33;101507.94;5097354;27;45389;-78
2023/07/20 04:02:24;;;;;;;;;2.00;2.00;;;;;28.05;37.97;101506.91;5097370;27;45295;-77
2023/07/20 04:04:49;;;;;;;;;2.00;2.00;;;;;28.05;38.52;101511.47;5096943;27;45422;-78
2023/07/20 04:07:14;;;;;;;;;2.00;2.00;;;;;27.99;38.16;101504.25;5096859;27;45482;-78
2023/07/20 04:09:40;;;;;;;;;2.33;2.33;;;;;28.02;38.41;101507.34;5096994;27;45409;-78
2023/07/20 04:12:06;;;;;;;;;3.00;1.00;;;;;27.58;37.63;101440.03;5097069;27;45386;-78
2023/07/20 04:14:31;;;;;;;;;2.00;2.00;;;;;27.98;38.16;101499.91;5097038;27;45468;-78
2023/07/20 04:16:57;;;;;;;;;2.00;2.00;;;;;28.06;37.99;101508.56;5096501;27;45696;-78
2023/07/20 04:19:22;;;;;;;;;2.00;2.00;;;;;28.06;38.42;101508.56;5096735;27;45351;-79
2023/07/20 04:21:47;;;;;;;;;2.33;1.67;;;;;27.93;37.87;101497.84;5097025;27;45218;-78
2023/07/20 04:24:13;;;;;;;;;2.00;2.00;;;;;27.93;37.72;101498.69;5096887;27;45346;-78
2023/07/20 04:26:38;;;;;;;;;2.00;2.00;;;;;28.06;37.80;101518.44;5096629;27;47174;-78
2023/07/20 04:29:03;;;;;;;;;2.33;2.00;;;;;28.06;38.28;101524.59;5096706;27;45300;-78
2023/07/20 04:31:30;;;;;;;;;2.00;2.00;;;;;27.84;38.39;101478.53;5096762;27;45412;-78
2023/07/20 04:33:55;;;;;;;;;2.00;2.00;;;;;28.02;38.28;101514.53;5096589;27;45356;-79
2023/07/20 04:36:21;;;;;;;;;1.00;1.00;;;;;28.02;38.20;101512.69;5095390;27;46254;-78
2023/07/20 04:38:46;;;;;;;;;2.00;2.00;;;;;27.97;38.32;101507.13;5096643;27;45285;-79
2023/07/20 04:41:15;;;;;;;;;2.00;2.00;;;;;28.06;38.28;101518.44;5096761;27;45277;-78
2023/07/20 04:43:44;;;;;;;;;2.00;2.00;;;;;27.86;38.63;101489.84;5096611;27;45457;-78
2023/07/20 04:46:12;;;;;;;;;2.67;2.67;;;;;28.06;37.95;101515.75;5096328;27;45382;-78
2023/07/20 04:48:38;;;;;;;;;1.67;1.67;;;;;27.86;38.19;101484.50;5096427;27;45376;-78
2023/07/20 04:51:03;;;;;;;;;1.00;1.00;;;;;27.91;37.95;101502.59;5096274;27;45401;-78
2023/07/20 04:53:29;;;;;;;;;3.33;2.33;;;;;28.00;37.87;101511.25;5096597;27;45362;-77
2023/07/20 04:55:54;;;;;;;;;1.67;1.67;;;;;27.89;37.89;101494.78;5096453;27;45451;-78
2023/07/20 04:58:23;;;;;;;;;2.00;2.00;;;;;28.00;38.42;101514.72;5096375;27;45451;-78
2023/07/20 05:00:49;;;;;;;;;3.33;2.67;;;;;28.06;38.12;101521.94;5096153;27;45381;-78
2023/07/20 05:03:15;;;;;;;;;2.00;2.00;;;;;27.74;38.03;101477.03;5096334;27;45267;-78
2023/07/20 05:05:40;;;;;;;;;3.00;3.00;;;;;27.99;37.87;101512.25;5096129;27;46132;-78
2023/07/20 05:08:06;;;;;;;;;1.00;1.00;;;;;28.00;38.14;101514.72;5096155;27;45307;-77
2023/07/20 05:10:32;;;;;;;;;1.67;1.67;;;;;28.07;38.19;101522.75;5096288;27;45289;-79
2023/07/20 05:12:57;;;;;;;;;2.67;1.67;;;;;28.03;37.65;101518.84;5096403;27;45361;-78
2023/07/20 05:15:23;;;;;;;;;2.00;2.00;;;;;27.97;38.10;101515.16;5095714;27;45532;-78
2023/07/20 05:17:48;;;;;;;;;1.00;1.00;;;;;27.24;38.34;101392.72;5096172;27;45279;-78
2023/07/20 05:20:14;;;;;;;;;1.67;1.67;;;;;28.08;38.29;101529.75;5096147;27;45333;-78
2023/07/20 05:22:40;;;;;;;;;2.00;2.00;;;;;28.08;37.89;101529.75;5096190;27;45402;-78
2023/07/20 05:25:10;;;;;;;;;2.33;2.33;;;;;27.79;37.91;101484.44;5095887;27;46086;-78
2023/07/20 05:27:40;;;;;;;;;2.00;2.00;;;;;27.66;37.99;101479.94;5095907;27;45414;-78
2023/07/20 05:30:07;;;;;;;;;5.00;3.00;;;;;27.95;37.75;101515.34;5095738;27;45367;-77
2023/07/20 05:32:32;;;;;;;;;3.00;2.00;;;;;28.08;38.32;101529.75;5096034;27;45530;-78
2023/07/20 05:34:58;;;;;;;;;1.00;1.00;;;;;28.07;38.06;101531.63;5095736;27;45268;-78
2023/07/20 05:37:23;;;;;;;;;4.00;2.67;;;;;28.05;38.23;101519.47;5095860;27;45282;-78
2023/07/20 05:39:48;;;;;;;;;2.00;2.00;;;;;28.08;38.01;101532.41;5096027;27;45226;-78
2023/07/20 05:42:14;;;;;;;;;2.00;2.00;;;;;28.00;38.15;101525.41;5095969;27;45328;-78
2023/07/20 05:44:40;;;;;;;;;4.00;3.00;;;;;27.87;38.31;101506.72;5095320;27;46139;-78
2023/07/20 05:47:05;;;;;;;;;1.67;1.67;;;;;28.06;37.85;101540.66;5095761;27;45253;-78
2023/07/20 05:49:30;;;;;;;;;3.00;3.00;;;;;27.94;38.43;101516.38;5098807;27;45360;-78
2023/07/20 05:51:56;;;;;;;;;2.00;2.00;;;;;28.08;38.03;101535.09;5099154;27;45160;-78
2023/07/20 05:54:23;;;;;;;;;3.00;2.00;;;;;28.00;38.32;101521.94;5099339;27;45442;-82
2023/07/20 05:56:49;;;;;;;;;1.33;1.33;;;;;27.89;38.25;101505.47;5099453;27;45356;-77
2023/07/20 05:59:14;;;;;;;;;3.00;3.00;;;;;27.89;37.94;101499.31;5099035;27;45362;-75
2023/07/20 06:01:40;;;;;;;;;3.00;3.00;;;;;28.04;38.47;101524.00;5099430;27;45348;-82
2023/07/20 06:04:06;;;;;;;;;9.67;9.67;;;;;27.96;38.06;101510.81;5099373;27;45625;-81
2023/07/20 06:06:31;;;;;;;;;17.67;14.00;;;;;27.91;37.99;101521.31;5099641;27;45433;-85
2023/07/20 06:08:56;;;;;;;;;22.50;17.50;;;;;27.69;37.91;101526.81;5099762;27;45397;-81
2023/07/20 06:11:22;;;;;;;;;24.50;18.00;;;;;27.50;38.07;101538.06;5095581;27;45468;-83
2023/07/20 06:13:47;;;;;;;;;21.50;19.00;;;;;27.26;38.61;101526.06;5097483;27;46372;-84
2023/07/20 06:16:13;;;;;;;;;30.25;21.50;;;;;27.07;38.66;101526.56;5097493;27;45522;-88
2023/07/20 06:18:38;;;;;;;;;20.25;15.25;;;;;26.95;39.34;101534.31;5097502;27;45280;-82
2023/07/20 06:21:04;;;;;;;;;18.00;13.75;;;;;26.84;39.45;101527.69;5098914;27;45373;-83
2023/07/20 06:23:30;;;;;;;;;22.25;19.50;;;;;26.61;39.15;101518.13;5098529;27;46270;-90
2023/07/20 06:25:55;;;;;;;;;21.00;18.00;;;;;26.56;40.04;101533.88;5098530;27;45382;-83
2023/07/20 06:28:20;;;;;;;;;23.25;19.25;;;;;26.42;39.77;101530.25;5098321;27;45635;-82
2023/07/20 06:30:46;;;;;;;;;18.75;15.75;;;;;26.28;40.05;101529.34;5099211;27;45377;-79
2023/07/20 06:33:11;;;;;;;;;21.50;20.25;;;;;25.97;40.68;101504.66;5098822;27;46142;-86
2023/07/20 06:35:37;;;;;;;;;21.00;15.75;;;;;25.90;40.89;101520.59;5098551;27;45590;-88
2023/07/20 06:38:03;;;;;;;;;18.75;15.25;;;;;25.89;40.98;101536.78;5098499;27;45850;-82
2023/07/20 06:40:29;;;;;;;;;17.25;15.00;;;;;25.80;41.39;101520.91;5087033;27;46571;-80
2023/07/20 06:42:55;;;;;;;;;21.00;16.50;;;;;25.94;41.09;101523.72;5082093;27;46376;-83
2023/07/20 06:45:20;;;;;;;;;21.25;13.25;;;;;26.08;41.03;101529.97;5095007;27;45898;-82
2023/07/20 06:47:46;;;;;;;;;15.75;15.75;;;;;26.24;41.17;101536.06;5102298;27;45390;-83
2023/07/20 06:50:11;;;;;;;;;14.00;13.50;;;;;26.36;40.82;101534.50;5097240;27;45353;-82
2023/07/20 06:52:37;;;;;;;;;20.00;16.00;;;;;26.35;40.49;101519.53;5095746;27;45981;-81
2023/07/20 06:55:03;;;;;;;;;20.25;13.75;;;;;26.48;40.37;101532.19;5097840;27;45309;-82
2023/07/20 06:57:28;;;;;;;;;16.75;15.00;;;;;26.61;40.61;101531.47;5096690;27;45436;-84
2023/07/20 06:59:53;;;;;;;;;16.75;13.75;;;;;26.61;40.50;101517.28;5101043;27;45318;-82
2023/07/20 07:02:19;;;;;;;;;13.50;11.50;;;;;26.70;40.07;101518.75;5093988;27;45409;-82
2023/07/20 07:04:46;;;;;;;;;15.25;15.00;;;;;26.87;40.36;101530.97;5096905;27;45449;-82
2023/07/20 07:07:13;;;;;;;;;18.25;14.00;;;;;26.81;40.01;101514.72;5097955;27;45598;-82
2023/07/20 07:09:39;;;;;;;;;15.50;14.50;;;;;27.04;39.97;101536.81;5094722;27;45821;-82
2023/07/20 07:12:04;;;;;;;;;13.75;12.25;;;;;27.07;39.55;101533.75;5098245;27;47064;-81
2023/07/20 07:14:30;;;;;;;;;15.00;13.75;;;;;27.17;39.32;101538.75;5097387;27;45515;-80
2023/07/20 07:16:55;;;;;;;;;16.00;13.50;;;;;27.16;40.01;101529.94;5096361;27;45466;-82
2023/07/20 07:19:20;;;;;;;;;10.67;10.67;;;;;27.26;39.70;101540.25;5097495;27;45426;-83
2023/07/20 07:21:46;;;;;;;;;12.33;12.00;;;;;27.02;39.14;101491.63;5096712;27;50587;-84
2023/07/20 07:24:11;;;;;;;;;18.00;13.50;;;;;27.26;39.23;101521.53;5096355;27;45366;-82
2023/07/20 07:26:37;;;;;;;;;14.25;12.00;;;;;27.44;38.88;101538.88;5095707;27;45539;-82
2023/07/20 07:29:03;;;;;;;;;14.75;11.75;;;;;27.46;39.30;101535.97;5096107;27;45440;-83
2023/07/20 07:31:30;;;;;;;;;15.00;12.75;;;;;27.55;38.82;101547.31;5091083;27;45970;-82
2023/07/20 07:33:56;;;;;;;;;12.00;11.75;;;;;27.56;38.77;101541.78;5093190;27;45425;-82
2023/07/20 07:36:21;;;;;;;;;17.75;15.50;;;;;27.58;38.74;101533.56;5096935;27;45357;-82
2023/07/20 07:38:47;;;;;;;;;13.25;9.25;;;;;27.68;38.49;101550.03;5095977;27;45519;-82
2023/07/20 07:41:12;;;;;;;;;14.75;13.50;;;;;27.73;38.77;101547.59;5096149;27;46238;-82
2023/07/20 07:43:38;;;;;;;;;15.00;13.33;;;;;27.76;38.58;101545.53;5097041;27;45358;-82
2023/07/20 07:46:04;;;;;;;;;18.33;12.67;;;;;27.81;38.34;101541.25;5113185;27;45290;-83
2023/07/20 07:48:29;;;;;;;;;15.00;11.67;;;;;27.70;38.91;101523.09;5105577;27;45448;-82
2023/07/20 07:50:54;;;;;;;;;17.50;11.75;;;;;27.84;38.47;101540.81;5092666;27;46301;-83
2023/07/20 07:53:20;;;;;;;;;14.75;11.50;;;;;27.90;38.62;101544.53;5096557;27;45415;-82
2023/07/20 07:55:47;;;;;;;;;17.50;14.50;;;;;27.91;38.08;101538.19;5116778;27;45399;-83
2023/07/20 07:58:13;;;;;;;;;14.00;14.00;;;;;27.88;38.09;101521.72;5116400;27;45466;-82
2023/07/20 08:00:39;;;;;;;;;12.33;12.00;;;;;27.89;38.71;101510.00;5104300;27;46065;-83
2023/07/20 08:03:06;;;;;;;;;18.00;14.33;;;;;28.06;38.43;101531.81;5095627;27;45387;-82
2023/07/20 08:05:31;;;;;;;;;13.25;11.50;;;;;27.87;38.08;101499.50;5095568;27;45469;-83
2023/07/20 08:07:56;;;;;;;;;14.00;12.00;;;;;28.07;37.80;101528.13;5096107;27;45449;-83
2023/07/20 08:10:22;;;;;;;;;16.00;12.75;;;;;28.18;38.43;101534.72;5094845;27;48730;-82
2023/07/20 08:12:47;;;;;;;;;15.75;13.00;;;;;28.26;37.96;101537.16;5095023;27;45457;-83
2023/07/20 08:15:14;;;;;;;;;17.00;13.25;;;;;28.19;38.00;101522.97;5101463;27;54222;-82
2023/07/20 08:17:40;;;;;;;;;19.00;13.25;;;;;28.37;38.03;101542.91;5115510;27;45746;-83
2023/07/20 08:20:06;;;;;;;;;14.50;12.75;;;;;28.42;38.39;101539.63;5116077;27;46650;-84
2023/07/20 08:22:31;;;;;;;;;11.33;10.33;;;;;28.27;38.18;101501.34;5115427;27;45446;-82
2023/07/20 08:24:57;;;;;;;;;16.25;12.50;;;;;28.41;37.94;101525.44;5104177;27;45717;-82
2023/07/20 08:27:22;;;;;;;;;15.00;13.25;;;;;28.50;38.35;101532.22;5095220;27;45582;-83
2023/07/20 08:29:47;;;;;;;;;12.50;11.25;;;;;28.54;38.17;101527.28;5094352;27;45591;-83
2023/07/20 08:32:14;;;;;;;;;16.50;11.50;;;;;28.57;37.73;101521.53;5094994;27;45409;-82
2023/07/20 08:34:39;;;;;;;;;12.00;12.00;;;;;28.59;37.94;101522.13;5095413;27;45574;-82
2023/07/20 08:37:05;;;;;;;;;14.25;12.75;;;;;28.62;37.64;101520.91;5095035;27;45536;-82
2023/07/20 08:39:30;;;;;;;;;13.67;12.67;;;;;28.61;37.29;101509.38;5094232;27;45766;-82
2023/07/20 08:41:59;;;;;;;;;14.25;13.25;;;;;28.60;37.65;101499.69;5095587;27;45381;-82
2023/07/20 08:44:25;;;;;;;;;15.25;13.75;;;;;28.74;37.51;101515.72;5094814;27;45527;-82
2023/07/20 08:46:52;;;;;;;;;12.00;12.00;;;;;28.78;37.37;101511.56;5094643;27;45524;-82
2023/07/20 08:49:18;;;;;;;;;13.67;11.67;;;;;28.75;37.74;101503.97;5094410;27;45497;-82
2023/07/20 08:51:46;;;;;;;;;15.00;12.33;;;;;28.77;37.80;101498.41;5093964;27;45438;-82
2023/07/20 08:54:13;;;;;;;;;11.67;11.00;;;;;28.79;37.95;101490.97;5096039;27;45353;-82
2023/07/20 08:56:41;;;;;;;;;12.25;11.50;;;;;28.93;37.60;101505.16;5115359;27;45362;-82
2023/07/20 08:59:08;;;;;;;;;11.67;11.67;;;;;28.87;37.85;101492.59;5096328;27;48178;-84
2023/07/20 09:01:36;;;;;;;;;17.00;13.25;;;;;28.84;37.57;101478.59;5094981;27;45630;-82
2023/07/20 09:04:01;;;;;;;;;13.25;12.50;;;;;28.89;37.64;101479.81;5095409;27;45428;-83
2023/07/20 09:06:27;;;;;;;;;13.67;11.67;;;;;28.99;37.78;101490.91;5095377;27;45473;-83
2023/07/20 09:08:52;;;;;;;;;12.33;12.33;;;;;29.05;37.22;101498.09;5093505;27;47297;-82
2023/07/20 09:11:17;;;;;;;;;14.67;12.33;;;;;29.08;37.35;101494.16;5109322;27;45645;-82
2023/07/20 09:13:43;;;;;;;;;11.00;11.00;;;;;29.06;37.47;101488.22;5102654;27;45984;-82
2023/07/20 09:16:13;;;;;;;;;13.00;11.00;;;;;29.18;37.45;101497.25;5101929;27;45413;-83
2023/07/20 09:18:38;;;;;;;;;16.00;12.00;;;;;29.24;37.73;101494.75;5112024;27;46706;-83
2023/07/20 09:21:08;;;;;;;;;13.00;13.00;;;;;29.28;36.85;101502.13;5094572;27;45437;-82
2023/07/20 09:23:35;;;;;;;;;15.00;13.00;;;;;29.18;37.03;101481.16;5095664;27;45701;-81
2023/07/20 09:26:19;;;;;;;;;12.67;11.33;;;;;29.29;37.16;101493.06;5098083;27;45556;-82
2023/07/20 09:28:56;;;;;;;;;13.00;12.00;;;;;29.31;37.12;101486.66;5097995;27;45696;-82
2023/07/20 09:31:22;;;;;;;;;15.33;15.33;;;;;29.36;37.50;101493.03;5101453;27;45491;-82
2023/07/20 09:33:49;;;;;;;;;10.33;10.33;;;;;29.35;37.10;101486.03;5098258;27;45425;-82
2023/07/20 09:36:15;;;;;;;;;12.00;10.67;;;;;29.21;37.35;101463.84;5097840;27;45398;-81
2023/07/20 09:38:43;;;;;;;;;13.00;11.33;;;;;29.30;37.26;101472.47;5115473;27;46123;-81
2023/07/20 09:41:15;;;;;;;;;14.00;13.00;;;;;29.10;37.15;101441.22;5105373;27;45487;-81
2023/07/20 09:43:40;;;;;;;;;11.00;9.67;;;;;29.37;37.08;101473.22;5097728;27;45544;-81
2023/07/20 09:46:06;;;;;;;;;12.67;11.67;;;;;29.42;37.03;101485.97;5099375;27;45613;-81
2023/07/20 09:48:32;;;;;;;;;14.00;12.33;;;;;29.43;37.16;101479.59;5097021;27;45991;-82
2023/07/20 09:50:57;;;;;;;;;12.00;11.33;;;;;29.34;36.71;101462.13;5096532;27;45426;-82
2023/07/20 09:53:24;;;;;;;;;13.67;12.00;;;;;29.31;36.74;101460.69;5098851;27;45523;-81
2023/07/20 09:55:50;;;;;;;;;11.00;11.00;;;;;29.32;36.81;101454.31;5096371;27;45667;-81
2023/07/20 09:58:16;;;;;;;;;9.00;8.67;;;;;29.47;37.02;101480.78;5097356;27;46211;-81
2023/07/20 10:00:46;;;;;;;;;10.33;10.33;;;;;29.46;36.82;101473.78;5097500;27;45429;-81
2023/07/20 10:03:16;;;;;;;;;12.50;11.50;;;;;29.43;37.10;101468.88;5117157;27;45351;-82
2023/07/20 10:05:46;;;;;;;;;12.67;11.33;;;;;29.34;37.06;101462.94;5117435;27;45441;-82
2023/07/20 10:08:14;;;;;;;;;8.00;8.00;;;;;29.43;37.16;101465.38;5117633;27;46182;-82
2023/07/20 10:10:44;;;;;;;;;11.67;10.33;;;;;29.42;37.18;101471.75;5118245;27;45466;-81
2023/07/20 10:13:17;;;;;;;;;9.67;9.33;;;;;29.33;36.96;101455.94;5118020;27;45370;-81
2023/07/20 10:15:55;;;;;;;;;9.33;8.33;;;;;29.45;36.87;101471.31;5118409;27;45425;-81
2023/07/20 10:18:44;;;;;;;;;12.00;10.33;;;;;29.45;36.95;101468.66;5098370;27;46385;-81
2023/07/20 10:21:10;;;;;;;;;12.33;10.67;;;;;29.37;37.26;101451.78;5097015;27;45731;-81
2023/07/20 10:23:36;;;;;;;;;12.00;12.00;;;;;29.32;37.04;101438.22;5097418;27;45469;-81
2023/07/20 10:26:02;;;;;;;;;11.67;10.00;;;;;29.46;37.03;101457.69;5104465;27;45485;-81
2023/07/20 10:28:28;;;;;;;;;10.67;10.67;;;;;29.47;37.18;101462.03;5117567;27;46336;-82
2023/07/20 10:30:53;;;;;;;;;10.67;9.67;;;;;29.44;37.37;101453.59;5117640;27;45503;-81
2023/07/20 10:33:20;;;;;;;;;10.00;10.00;;;;;29.48;37.33;101465.53;5098483;27;45354;-82
2023/07/20 10:35:55;;;;;;;;;11.00;10.33;;;;;29.47;36.88;101454.00;5094844;27;45501;-81
2023/07/20 10:38:39;;;;;;;;;12.67;11.00;;;;;29.40;36.75;101455.91;5090959;27;47269;-82
2023/07/20 10:41:35;;;;;;;;;14.00;12.33;;;;;29.43;37.08;101452.78;5083369;27;45454;-81
2023/07/20 10:44:08;;;;;;;;;8.00;7.00;;;;;29.24;37.27;101423.22;5096544;27;45515;-81
2023/07/20 10:46:39;;;;;;;;;13.33;10.67;;;;;29.42;37.35;101455.66;5094683;27;45413;-81
2023/07/20 10:49:06;;;;;;;;;12.00;9.67;;;;;29.37;36.89;101445.59;5086186;27;46263;-81
2023/07/20 10:51:58;;;;;;;;;11.00;11.00;;;;;29.37;37.67;101442.94;5093200;27;45556;-81
2023/07/20 10:54:23;;;;;;;;;10.00;10.00;;;;;29.43;37.19;101446.59;5096103;27;45461;-81
2023/07/20 10:56:49;;;;;;;;;12.00;10.67;;;;;29.25;37.25;101418.69;5088551;27;45446;-81
2023/07/20 10:59:23;;;;;;;;;11.67;10.67;;;;;29.43;37.51;101449.28;5101965;27;45759;-81
2023/07/20 11:01:50;;;;;;;;;9.67;9.00;;;;;29.34;37.45;101421.91;5094354;27;45411;-80
2023/07/20 11:04:18;;;;;;;;;9.67;9.67;;;;;29.43;37.33;101430.53;5096811;27;45469;-83
2023/07/20 11:06:44;;;;;;;;;9.33;8.33;;;;;29.41;37.48;101428.03;5095409;27;45418;-83
2023/07/20 11:09:12;;;;;;;;;13.00;11.33;;;;;29.37;37.42;101427.66;5108138;27;47154;-82
2023/07/20 11:11:40;;;;;;;;;13.00;11.67;;;;;29.40;37.40;101432.59;5093132;27;45473;-83
2023/07/20 11:14:07;;;;;;;;;9.00;8.67;;;;;29.40;37.56;101427.25;5092264;27;45518;-82
2023/07/20 11:16:44;;;;;;;;;14.33;10.67;;;;;29.40;37.55;101431.78;5096582;27;45376;-83
2023/07/20 11:19:18;;;;;;;;;12.00;10.00;;;;;29.39;37.76;101428.28;5095805;27;45440;-81